sensor_id;sensor_type;location;lat;lon;timestamp;temperature;humidity
27619;DHT22;15039;50.830;4.730;2022-12-07T00:01:11;5.80;99.90
27619;DHT22;15039;50.830;4.730;2022-12-07T00:03:38;5.80;99.90
27619;DHT22;15039;50.830;4.730;2022-12-07T00:06:05;5.80;99.90
27619;DHT22;15039;50.830;4.730;2022-12-07T00:08:32;5.70;99.90
27619;DHT22;15039;50.830;4.730;2022-12-07T00:11:09;5.80;99.90
27619;DHT22;15039;50.830;4.730;2022-12-07T00:13:35;5.70;99.90
27619;DHT22;15039;50.830;4.730;2022-12-07T00:16:04;5.70;99.90
27619;DHT22;15039;50.830;4.730;2022-12-07T00:18:30;5.70;99.90
27619;DHT22;15039;50.830;4.730;2022-12-07T00:21:04;5.70;99.90
27619;DHT22;15039;50.830;4.730;2022-12-07T00:23:29;5.60;99.90
27619;DHT22;15039;50.830;4.730;2022-12-07T00:25:55;5.60;99.90
27619;DHT22;15039;50.830;4.730;2022-12-07T00:28:21;5.60;99.90
27619;DHT22;15039;50.830;4.730;2022-12-07T00:30:47;5.60;99.90
27619;DHT22;15039;50.830;4.730;2022-12-07T00:33:12;5.50;99.90
27619;DHT22;15039;50.830;4.730;2022-12-07T00:35:38;5.50;99.90
27619;DHT22;15039;50.830;4.730;2022-12-07T00:38:03;5.50;99.90
27619;DHT22;15039;50.830;4.730;2022-12-07T00:40:29;5.50;99.90
27619;DHT22;15039;50.830;4.730;2022-12-07T00:42:55;5.50;99.90
27619;DHT22;15039;50.830;4.730;2022-12-07T00:45:20;5.60;99.90
27619;DHT22;15039;50.830;4.730;2022-12-07T00:47:46;5.50;99.90
27619;DHT22;15039;50.830;4.730;2022-12-07T00:50:11;5.50;99.90
27619;DHT22;15039;50.830;4.730;2022-12-07T00:52:37;5.50;99.90
27619;DHT22;15039;50.830;4.730;2022-12-07T00:55:03;5.50;99.90
27619;DHT22;15039;50.830;4.730;2022-12-07T00:57:30;5.50;99.90
27619;DHT22;15039;50.830;4.730;2022-12-07T00:59:56;5.40;99.90
27619;DHT22;15039;50.830;4.730;2022-12-07T01:02:23;5.30;99.90
27619;DHT22;15039;50.830;4.730;2022-12-07T01:04:49;5.30;99.90
27619;DHT22;15039;50.830;4.730;2022-12-07T01:07:14;5.20;99.90
27619;DHT22;15039;50.830;4.730;2022-12-07T01:09:40;5.30;99.90
27619;DHT22;15039;50.830;4.730;2022-12-07T01:12:05;5.40;99.90
27619;DHT22;15039;50.830;4.730;2022-12-07T01:14:31;5.40;99.90
27619;DHT22;15039;50.830;4.730;2022-12-07T01:16:56;5.40;99.90
27619;DHT22;15039;50.830;4.730;2022-12-07T01:19:22;5.50;99.90
27619;DHT22;15039;50.830;4.730;2022-12-07T01:21:48;5.50;99.90
27619;DHT22;15039;50.830;4.730;2022-12-07T01:24:13;5.50;99.90
27619;DHT22;15039;50.830;4.730;2022-12-07T01:26:39;5.40;99.90
27619;DHT22;15039;50.830;4.730;2022-12-07T01:29:04;5.40;99.90
27619;DHT22;15039;50.830;4.730;2022-12-07T01:31:30;5.40;99.90
27619;DHT22;15039;50.830;4.730;2022-12-07T01:33:58;5.30;99.90
27619;DHT22;15039;50.830;4.730;2022-12-07T01:36:28;5.30;99.90
27619;DHT22;15039;50.830;4.730;2022-12-07T01:38:57;5.20;99.90
27619;DHT22;15039;50.830;4.730;2022-12-07T01:41:24;5.20;99.90
27619;DHT22;15039;50.830;4.730;2022-12-07T01:44:27;5.10;99.90
27619;DHT22;15039;50.830;4.730;2022-12-07T01:47:04;5.10;99.90
27619;DHT22;15039;50.830;4.730;2022-12-07T01:52:18;5.00;99.90
27619;DHT22;15039;50.830;4.730;2022-12-07T01:54:48;5.00;99.90
27619;DHT22;15039;50.830;4.730;2022-12-07T01:57:15;4.90;99.90
27619;DHT22;15039;50.830;4.730;2022-12-07T01:59:44;4.90;99.90
27619;DHT22;15039;50.830;4.730;2022-12-07T02:02:46;4.90;99.90
27619;DHT22;15039;50.830;4.730;2022-12-07T02:05:13;5.00;99.90
27619;DHT22;15039;50.830;4.730;2022-12-07T02:07:39;5.10;99.90
27619;DHT22;15039;50.830;4.730;2022-12-07T02:10:23;5.00;99.90
27619;DHT22;15039;50.830;4.730;2022-12-07T02:21:44;5.30;99.90
27619;DHT22;15039;50.830;4.730;2022-12-07T02:29:25;5.20;99.90
27619;DHT22;15039;50.830;4.730;2022-12-07T02:32:16;5.10;99.90
27619;DHT22;15039;50.830;4.730;2022-12-07T02:34:53;5.10;99.90
27619;DHT22;15039;50.830;4.730;2022-12-07T02:40:25;5.10;99.90
27619;DHT22;15039;50.830;4.730;2022-12-07T02:43:03;5.00;99.90
27619;DHT22;15039;50.830;4.730;2022-12-07T02:45:31;5.00;99.90
27619;DHT22;15039;50.830;4.730;2022-12-07T02:48:00;5.10;99.90
27619;DHT22;15039;50.830;4.730;2022-12-07T02:50:26;5.10;99.90
27619;DHT22;15039;50.830;4.730;2022-12-07T02:52:52;5.20;99.90
27619;DHT22;15039;50.830;4.730;2022-12-07T02:55:21;5.20;99.90
27619;DHT22;15039;50.830;4.730;2022-12-07T03:01:43;5.30;99.90
27619;DHT22;15039;50.830;4.730;2022-12-07T03:04:37;5.40;99.90
27619;DHT22;15039;50.830;4.730;2022-12-07T03:12:30;5.50;99.90
27619;DHT22;15039;50.830;4.730;2022-12-07T03:15:04;5.60;99.90
27619;DHT22;15039;50.830;4.730;2022-12-07T03:17:33;5.50;99.90
27619;DHT22;15039;50.830;4.730;2022-12-07T03:20:04;5.50;99.90
27619;DHT22;15039;50.830;4.730;2022-12-07T03:22:34;5.40;99.90
27619;DHT22;15039;50.830;4.730;2022-12-07T03:25:04;5.50;99.90
27619;DHT22;15039;50.830;4.730;2022-12-07T03:27:34;5.40;99.90
27619;DHT22;15039;50.830;4.730;2022-12-07T03:30:04;5.30;99.90
27619;DHT22;15039;50.830;4.730;2022-12-07T03:33:07;5.20;99.90
27619;DHT22;15039;50.830;4.730;2022-12-07T03:35:31;5.20;99.90
27619;DHT22;15039;50.830;4.730;2022-12-07T03:38:53;5.40;99.90
27619;DHT22;15039;50.830;4.730;2022-12-07T03:41:14;5.40;99.90
27619;DHT22;15039;50.830;4.730;2022-12-07T03:43:42;5.30;99.90
27619;DHT22;15039;50.830;4.730;2022-12-07T03:46:47;5.30;99.90
27619;DHT22;15039;50.830;4.730;2022-12-07T03:49:46;5.40;99.90
27619;DHT22;15039;50.830;4.730;2022-12-07T03:52:39;5.40;99.90
27619;DHT22;15039;50.830;4.730;2022-12-07T03:57:56;5.40;99.90
27619;DHT22;15039;50.830;4.730;2022-12-07T04:00:24;5.40;99.90
27619;DHT22;15039;50.830;4.730;2022-12-07T04:02:54;5.50;99.90
27619;DHT22;15039;50.830;4.730;2022-12-07T04:05:21;5.40;99.90
27619;DHT22;15039;50.830;4.730;2022-12-07T04:07:46;5.40;99.90
27619;DHT22;15039;50.830;4.730;2022-12-07T04:10:13;5.20;99.90
27619;DHT22;15039;50.830;4.730;2022-12-07T04:12:39;5.10;99.90
27619;DHT22;15039;50.830;4.730;2022-12-07T04:15:05;5.20;99.90
27619;DHT22;15039;50.830;4.730;2022-12-07T04:17:31;5.10;99.90
27619;DHT22;15039;50.830;4.730;2022-12-07T04:19:57;5.00;99.90
27619;DHT22;15039;50.830;4.730;2022-12-07T04:22:22;5.00;99.90
27619;DHT22;15039;50.830;4.730;2022-12-07T04:24:48;5.00;99.90
27619;DHT22;15039;50.830;4.730;2022-12-07T04:27:13;4.80;99.90
27619;DHT22;15039;50.830;4.730;2022-12-07T04:29:39;4.90;99.90
27619;DHT22;15039;50.830;4.730;2022-12-07T04:32:05;4.80;99.90
27619;DHT22;15039;50.830;4.730;2022-12-07T04:34:30;4.80;99.90
27619;DHT22;15039;50.830;4.730;2022-12-07T04:36:56;4.80;99.90
27619;DHT22;15039;50.830;4.730;2022-12-07T04:39:24;4.70;99.90
27619;DHT22;15039;50.830;4.730;2022-12-07T04:41:50;4.50;99.90
27619;DHT22;15039;50.830;4.730;2022-12-07T04:44:17;4.40;99.90
27619;DHT22;15039;50.830;4.730;2022-12-07T04:46:43;4.40;99.90
27619;DHT22;15039;50.830;4.730;2022-12-07T04:49:09;4.40;99.90
27619;DHT22;15039;50.830;4.730;2022-12-07T04:51:35;4.40;99.90
27619;DHT22;15039;50.830;4.730;2022-12-07T04:54:01;4.40;99.90
27619;DHT22;15039;50.830;4.730;2022-12-07T04:56:26;4.50;99.90
27619;DHT22;15039;50.830;4.730;2022-12-07T04:58:53;4.40;99.90
27619;DHT22;15039;50.830;4.730;2022-12-07T05:01:19;4.40;99.90
27619;DHT22;15039;50.830;4.730;2022-12-07T05:03:44;4.40;99.90
27619;DHT22;15039;50.830;4.730;2022-12-07T05:06:11;4.50;99.90
27619;DHT22;15039;50.830;4.730;2022-12-07T05:08:37;4.50;99.90
27619;DHT22;15039;50.830;4.730;2022-12-07T05:11:03;4.50;99.90
27619;DHT22;15039;50.830;4.730;2022-12-07T05:13:29;4.40;99.90
27619;DHT22;15039;50.830;4.730;2022-12-07T05:15:55;4.40;99.90
27619;DHT22;15039;50.830;4.730;2022-12-07T05:18:21;4.40;99.90
27619;DHT22;15039;50.830;4.730;2022-12-07T05:20:46;4.60;99.90
27619;DHT22;15039;50.830;4.730;2022-12-07T05:23:12;4.50;99.90
27619;DHT22;15039;50.830;4.730;2022-12-07T05:25:39;4.60;99.90
27619;DHT22;15039;50.830;4.730;2022-12-07T05:28:05;4.60;99.90
27619;DHT22;15039;50.830;4.730;2022-12-07T05:30:31;4.50;99.90
27619;DHT22;15039;50.830;4.730;2022-12-07T05:32:57;4.40;99.90
27619;DHT22;15039;50.830;4.730;2022-12-07T05:35:23;4.40;99.90
27619;DHT22;15039;50.830;4.730;2022-12-07T05:37:49;4.50;99.90
27619;DHT22;15039;50.830;4.730;2022-12-07T05:40:15;4.50;99.90
27619;DHT22;15039;50.830;4.730;2022-12-07T05:42:41;4.60;99.90
27619;DHT22;15039;50.830;4.730;2022-12-07T05:45:08;4.70;99.90
27619;DHT22;15039;50.830;4.730;2022-12-07T05:47:35;4.80;99.90
27619;DHT22;15039;50.830;4.730;2022-12-07T05:50:01;4.90;99.90
27619;DHT22;15039;50.830;4.730;2022-12-07T05:52:26;4.90;99.90
27619;DHT22;15039;50.830;4.730;2022-12-07T05:54:52;4.90;99.90
27619;DHT22;15039;50.830;4.730;2022-12-07T05:57:19;4.90;99.90
27619;DHT22;15039;50.830;4.730;2022-12-07T05:59:45;5.00;99.90
27619;DHT22;15039;50.830;4.730;2022-12-07T06:02:12;4.90;99.90
27619;DHT22;15039;50.830;4.730;2022-12-07T06:04:40;4.90;99.90
27619;DHT22;15039;50.830;4.730;2022-12-07T06:07:07;4.90;99.90
27619;DHT22;15039;50.830;4.730;2022-12-07T06:09:33;4.90;99.90
27619;DHT22;15039;50.830;4.730;2022-12-07T06:11:59;4.70;99.90
27619;DHT22;15039;50.830;4.730;2022-12-07T06:14:43;4.70;99.90
27619;DHT22;15039;50.830;4.730;2022-12-07T06:17:10;4.60;99.90
27619;DHT22;15039;50.830;4.730;2022-12-07T06:19:36;4.50;99.90
27619;DHT22;15039;50.830;4.730;2022-12-07T06:22:02;4.50;99.90
27619;DHT22;15039;50.830;4.730;2022-12-07T06:24:30;4.50;99.90
27619;DHT22;15039;50.830;4.730;2022-12-07T06:26:56;4.50;99.90
27619;DHT22;15039;50.830;4.730;2022-12-07T06:29:21;4.50;99.90
27619;DHT22;15039;50.830;4.730;2022-12-07T06:31:47;4.40;99.90
27619;DHT22;15039;50.830;4.730;2022-12-07T06:34:16;4.40;99.90
27619;DHT22;15039;50.830;4.730;2022-12-07T06:36:41;4.40;99.90
27619;DHT22;15039;50.830;4.730;2022-12-07T06:39:08;4.30;99.90
27619;DHT22;15039;50.830;4.730;2022-12-07T06:41:35;4.40;99.90
27619;DHT22;15039;50.830;4.730;2022-12-07T06:44:02;4.50;99.90
27619;DHT22;15039;50.830;4.730;2022-12-07T06:46:28;4.50;99.90
27619;DHT22;15039;50.830;4.730;2022-12-07T06:48:54;4.60;99.90
27619;DHT22;15039;50.830;4.730;2022-12-07T06:51:20;4.50;99.90
27619;DHT22;15039;50.830;4.730;2022-12-07T06:53:45;4.50;99.90
27619;DHT22;15039;50.830;4.730;2022-12-07T06:56:11;4.50;99.90
27619;DHT22;15039;50.830;4.730;2022-12-07T06:58:37;4.60;99.90
27619;DHT22;15039;50.830;4.730;2022-12-07T07:01:07;4.50;99.90
27619;DHT22;15039;50.830;4.730;2022-12-07T07:03:33;4.50;99.90
27619;DHT22;15039;50.830;4.730;2022-12-07T07:05:59;4.50;99.90
27619;DHT22;15039;50.830;4.730;2022-12-07T07:08:24;4.50;99.90
27619;DHT22;15039;50.830;4.730;2022-12-07T07:10:50;4.40;99.90
27619;DHT22;15039;50.830;4.730;2022-12-07T07:13:16;4.40;99.90
27619;DHT22;15039;50.830;4.730;2022-12-07T07:15:41;4.50;99.90
27619;DHT22;15039;50.830;4.730;2022-12-07T07:18:07;4.50;99.90
27619;DHT22;15039;50.830;4.730;2022-12-07T07:20:33;4.50;99.90
27619;DHT22;15039;50.830;4.730;2022-12-07T07:22:58;4.50;99.90
27619;DHT22;15039;50.830;4.730;2022-12-07T07:25:24;4.60;99.90
27619;DHT22;15039;50.830;4.730;2022-12-07T07:27:50;4.70;99.90
27619;DHT22;15039;50.830;4.730;2022-12-07T07:30:15;4.70;99.90
27619;DHT22;15039;50.830;4.730;2022-12-07T07:32:41;4.80;99.90
27619;DHT22;15039;50.830;4.730;2022-12-07T07:35:07;4.90;99.90
27619;DHT22;15039;50.830;4.730;2022-12-07T07:37:33;5.00;99.90
27619;DHT22;15039;50.830;4.730;2022-12-07T07:39:59;5.00;99.90
27619;DHT22;15039;50.830;4.730;2022-12-07T07:42:25;5.00;99.90
27619;DHT22;15039;50.830;4.730;2022-12-07T07:44:50;5.10;99.90
27619;DHT22;15039;50.830;4.730;2022-12-07T07:47:16;5.10;99.90
27619;DHT22;15039;50.830;4.730;2022-12-07T07:49:41;5.10;99.90
27619;DHT22;15039;50.830;4.730;2022-12-07T07:52:07;5.10;99.90
27619;DHT22;15039;50.830;4.730;2022-12-07T07:54:33;5.20;99.90
27619;DHT22;15039;50.830;4.730;2022-12-07T07:56:58;5.10;99.90
27619;DHT22;15039;50.830;4.730;2022-12-07T07:59:24;5.10;99.90
27619;DHT22;15039;50.830;4.730;2022-12-07T08:01:50;5.10;99.90
27619;DHT22;15039;50.830;4.730;2022-12-07T08:04:16;5.00;99.90
27619;DHT22;15039;50.830;4.730;2022-12-07T08:06:41;4.90;99.90
27619;DHT22;15039;50.830;4.730;2022-12-07T08:09:08;4.90;99.90
27619;DHT22;15039;50.830;4.730;2022-12-07T08:11:34;5.00;99.90
27619;DHT22;15039;50.830;4.730;2022-12-07T08:14:00;5.00;99.90
27619;DHT22;15039;50.830;4.730;2022-12-07T08:16:26;4.90;99.90
27619;DHT22;15039;50.830;4.730;2022-12-07T08:18:52;4.80;99.90
27619;DHT22;15039;50.830;4.730;2022-12-07T08:21:19;4.80;99.90
27619;DHT22;15039;50.830;4.730;2022-12-07T08:23:45;4.70;99.90
27619;DHT22;15039;50.830;4.730;2022-12-07T08:26:13;4.80;99.90
27619;DHT22;15039;50.830;4.730;2022-12-07T08:28:39;4.90;99.90
27619;DHT22;15039;50.830;4.730;2022-12-07T08:31:13;4.90;99.90
27619;DHT22;15039;50.830;4.730;2022-12-07T08:33:39;4.90;99.90
27619;DHT22;15039;50.830;4.730;2022-12-07T08:36:08;4.90;99.90
27619;DHT22;15039;50.830;4.730;2022-12-07T08:38:35;4.80;99.90
27619;DHT22;15039;50.830;4.730;2022-12-07T08:41:01;4.90;99.90
27619;DHT22;15039;50.830;4.730;2022-12-07T08:43:27;4.80;99.90
27619;DHT22;15039;50.830;4.730;2022-12-07T08:46:17;4.80;99.90
27619;DHT22;15039;50.830;4.730;2022-12-07T08:48:57;4.80;99.90
27619;DHT22;15039;50.830;4.730;2022-12-07T08:51:24;4.80;99.90
27619;DHT22;15039;50.830;4.730;2022-12-07T08:53:51;4.80;99.90
27619;DHT22;15039;50.830;4.730;2022-12-07T08:56:18;4.80;99.90
27619;DHT22;15039;50.830;4.730;2022-12-07T08:58:44;4.90;99.90
27619;DHT22;15039;50.830;4.730;2022-12-07T09:01:10;5.00;99.90
27619;DHT22;15039;50.830;4.730;2022-12-07T09:03:36;5.10;99.90
27619;DHT22;15039;50.830;4.730;2022-12-07T09:06:02;5.20;99.90
27619;DHT22;15039;50.830;4.730;2022-12-07T09:08:34;5.40;99.90
27619;DHT22;15039;50.830;4.730;2022-12-07T09:11:01;5.40;99.90
27619;DHT22;15039;50.830;4.730;2022-12-07T09:13:27;5.60;99.90
27619;DHT22;15039;50.830;4.730;2022-12-07T09:15:53;5.70;99.90
27619;DHT22;15039;50.830;4.730;2022-12-07T09:18:18;5.90;99.90
27619;DHT22;15039;50.830;4.730;2022-12-07T09:20:44;6.00;99.90
27619;DHT22;15039;50.830;4.730;2022-12-07T09:23:09;6.00;99.90
27619;DHT22;15039;50.830;4.730;2022-12-07T09:25:35;5.90;99.90
27619;DHT22;15039;50.830;4.730;2022-12-07T09:28:01;5.90;99.90
27619;DHT22;15039;50.830;4.730;2022-12-07T09:30:27;6.00;99.90
27619;DHT22;15039;50.830;4.730;2022-12-07T09:32:54;6.00;99.90
27619;DHT22;15039;50.830;4.730;2022-12-07T09:35:20;6.00;99.90
27619;DHT22;15039;50.830;4.730;2022-12-07T09:37:46;6.00;99.90
27619;DHT22;15039;50.830;4.730;2022-12-07T09:40:13;6.10;99.90
27619;DHT22;15039;50.830;4.730;2022-12-07T09:42:44;6.20;99.90
27619;DHT22;15039;50.830;4.730;2022-12-07T09:45:22;6.30;99.90
27619;DHT22;15039;50.830;4.730;2022-12-07T09:47:49;6.30;99.90
27619;DHT22;15039;50.830;4.730;2022-12-07T09:50:18;6.50;99.90
27619;DHT22;15039;50.830;4.730;2022-12-07T09:52:47;6.50;99.90
27619;DHT22;15039;50.830;4.730;2022-12-07T09:55:24;6.50;99.90
27619;DHT22;15039;50.830;4.730;2022-12-07T09:57:52;6.50;99.90
27619;DHT22;15039;50.830;4.730;2022-12-07T10:00:19;6.60;99.90
27619;DHT22;15039;50.830;4.730;2022-12-07T10:02:58;6.60;99.90
27619;DHT22;15039;50.830;4.730;2022-12-07T10:07:54;6.80;99.90
27619;DHT22;15039;50.830;4.730;2022-12-07T10:10:34;6.90;99.90
27619;DHT22;15039;50.830;4.730;2022-12-07T10:13:06;7.00;99.90
27619;DHT22;15039;50.830;4.730;2022-12-07T10:18:39;7.00;99.90
27619;DHT22;15039;50.830;4.730;2022-12-07T10:21:15;7.00;99.90
27619;DHT22;15039;50.830;4.730;2022-12-07T10:26:33;7.00;99.90
27619;DHT22;15039;50.830;4.730;2022-12-07T10:29:04;7.00;99.90
27619;DHT22;15039;50.830;4.730;2022-12-07T10:31:39;7.00;99.90
27619;DHT22;15039;50.830;4.730;2022-12-07T10:34:22;6.90;99.90
27619;DHT22;15039;50.830;4.730;2022-12-07T10:36:51;6.90;99.90
27619;DHT22;15039;50.830;4.730;2022-12-07T10:39:21;7.00;99.90
27619;DHT22;15039;50.830;4.730;2022-12-07T10:42:02;7.10;99.90
27619;DHT22;15039;50.830;4.730;2022-12-07T10:44:33;7.20;99.90
27619;DHT22;15039;50.830;4.730;2022-12-07T10:47:29;7.20;99.90
27619;DHT22;15039;50.830;4.730;2022-12-07T10:50:08;7.30;99.90
27619;DHT22;15039;50.830;4.730;2022-12-07T10:55:44;7.40;99.90
27619;DHT22;15039;50.830;4.730;2022-12-07T11:00:57;7.60;99.90
27619;DHT22;15039;50.830;4.730;2022-12-07T11:14:44;8.00;99.90
27619;DHT22;15039;50.830;4.730;2022-12-07T11:17:20;8.00;99.90
27619;DHT22;15039;50.830;4.730;2022-12-07T11:22:51;7.90;99.90
27619;DHT22;15039;50.830;4.730;2022-12-07T11:25:49;7.80;99.90
27619;DHT22;15039;50.830;4.730;2022-12-07T11:31:28;7.80;99.90
27619;DHT22;15039;50.830;4.730;2022-12-07T11:36:51;8.10;99.90
27619;DHT22;15039;50.830;4.730;2022-12-07T11:39:33;8.20;99.90
27619;DHT22;15039;50.830;4.730;2022-12-07T11:42:12;8.20;99.90
27619;DHT22;15039;50.830;4.730;2022-12-07T11:45:02;8.20;99.90
27619;DHT22;15039;50.830;4.730;2022-12-07T11:47:43;8.20;99.90
27619;DHT22;15039;50.830;4.730;2022-12-07T11:55:26;8.60;99.90
27619;DHT22;15039;50.830;4.730;2022-12-07T11:58:18;8.50;99.90
27619;DHT22;15039;50.830;4.730;2022-12-07T12:00:45;8.50;99.90
27619;DHT22;15039;50.830;4.730;2022-12-07T12:03:30;8.40;99.90
27619;DHT22;15039;50.830;4.730;2022-12-07T12:05:58;8.40;99.90
27619;DHT22;15039;50.830;4.730;2022-12-07T12:19:16;8.30;99.90
27619;DHT22;15039;50.830;4.730;2022-12-07T12:21:46;8.30;99.90
27619;DHT22;15039;50.830;4.730;2022-12-07T12:24:19;8.30;99.90
27619;DHT22;15039;50.830;4.730;2022-12-07T12:26:53;8.20;99.90
27619;DHT22;15039;50.830;4.730;2022-12-07T12:29:31;8.30;99.90
27619;DHT22;15039;50.830;4.730;2022-12-07T12:32:49;8.40;99.90
27619;DHT22;15039;50.830;4.730;2022-12-07T12:37:46;8.50;99.90
27619;DHT22;15039;50.830;4.730;2022-12-07T12:42:55;8.60;99.90
27619;DHT22;15039;50.830;4.730;2022-12-07T12:45:29;8.50;99.90
27619;DHT22;15039;50.830;4.730;2022-12-07T13:03:57;8.20;99.90
27619;DHT22;15039;50.830;4.730;2022-12-07T13:08:57;8.30;99.90
27619;DHT22;15039;50.830;4.730;2022-12-07T13:11:35;8.30;99.90
27619;DHT22;15039;50.830;4.730;2022-12-07T13:17:12;8.30;99.90
27619;DHT22;15039;50.830;4.730;2022-12-07T13:25:33;8.10;99.90
27619;DHT22;15039;50.830;4.730;2022-12-07T13:28:09;8.10;99.90
27619;DHT22;15039;50.830;4.730;2022-12-07T13:33:36;8.00;99.90
27619;DHT22;15039;50.830;4.730;2022-12-07T13:36:02;8.00;99.90
27619;DHT22;15039;50.830;4.730;2022-12-07T13:38:35;8.00;99.90
27619;DHT22;15039;50.830;4.730;2022-12-07T13:41:11;8.10;99.90
27619;DHT22;15039;50.830;4.730;2022-12-07T13:43:54;8.20;99.90
27619;DHT22;15039;50.830;4.730;2022-12-07T13:46:35;8.30;99.90
27619;DHT22;15039;50.830;4.730;2022-12-07T13:49:21;8.20;99.90
27619;DHT22;15039;50.830;4.730;2022-12-07T13:51:47;8.20;99.90
27619;DHT22;15039;50.830;4.730;2022-12-07T13:54:13;8.30;99.90
27619;DHT22;15039;50.830;4.730;2022-12-07T13:56:39;8.30;99.90
27619;DHT22;15039;50.830;4.730;2022-12-07T13:59:16;8.30;99.90
27619;DHT22;15039;50.830;4.730;2022-12-07T14:01:42;8.20;99.90
27619;DHT22;15039;50.830;4.730;2022-12-07T14:04:39;8.20;99.90
27619;DHT22;15039;50.830;4.730;2022-12-07T14:07:25;8.20;99.90
27619;DHT22;15039;50.830;4.730;2022-12-07T14:10:05;8.30;99.90
27619;DHT22;15039;50.830;4.730;2022-12-07T14:12:32;8.30;99.90
27619;DHT22;15039;50.830;4.730;2022-12-07T14:14:59;8.20;99.90
27619;DHT22;15039;50.830;4.730;2022-12-07T14:17:27;8.10;99.90
27619;DHT22;15039;50.830;4.730;2022-12-07T14:19:55;8.10;99.90
27619;DHT22;15039;50.830;4.730;2022-12-07T14:22:31;8.00;99.90
27619;DHT22;15039;50.830;4.730;2022-12-07T14:27:32;8.00;99.90
27619;DHT22;15039;50.830;4.730;2022-12-07T14:30:03;8.00;99.90
27619;DHT22;15039;50.830;4.730;2022-12-07T14:32:30;8.00;99.90
27619;DHT22;15039;50.830;4.730;2022-12-07T14:37:28;8.10;99.90
27619;DHT22;15039;50.830;4.730;2022-12-07T14:39:54;8.10;99.90
27619;DHT22;15039;50.830;4.730;2022-12-07T14:42:19;8.20;99.90
27619;DHT22;15039;50.830;4.730;2022-12-07T14:44:48;8.00;99.90
27619;DHT22;15039;50.830;4.730;2022-12-07T14:47:14;8.00;99.90
27619;DHT22;15039;50.830;4.730;2022-12-07T14:49:40;8.00;99.90
27619;DHT22;15039;50.830;4.730;2022-12-07T14:52:19;8.00;99.90
27619;DHT22;15039;50.830;4.730;2022-12-07T14:54:46;8.00;99.90
27619;DHT22;15039;50.830;4.730;2022-12-07T14:57:12;7.70;99.90
27619;DHT22;15039;50.830;4.730;2022-12-07T14:59:40;7.30;99.90
27619;DHT22;15039;50.830;4.730;2022-12-07T15:02:06;7.00;99.90
27619;DHT22;15039;50.830;4.730;2022-12-07T15:04:32;6.80;99.90
27619;DHT22;15039;50.830;4.730;2022-12-07T15:07:00;6.60;99.90
27619;DHT22;15039;50.830;4.730;2022-12-07T15:09:26;6.60;99.90
27619;DHT22;15039;50.830;4.730;2022-12-07T15:11:52;6.60;99.90
27619;DHT22;15039;50.830;4.730;2022-12-07T15:14:17;6.70;99.90
27619;DHT22;15039;50.830;4.730;2022-12-07T15:16:43;6.60;99.90
27619;DHT22;15039;50.830;4.730;2022-12-07T15:19:15;6.60;99.90
27619;DHT22;15039;50.830;4.730;2022-12-07T15:21:42;6.60;99.90
27619;DHT22;15039;50.830;4.730;2022-12-07T15:24:09;6.60;99.90
27619;DHT22;15039;50.830;4.730;2022-12-07T15:26:35;6.70;99.90
27619;DHT22;15039;50.830;4.730;2022-12-07T15:29:01;6.60;99.90
27619;DHT22;15039;50.830;4.730;2022-12-07T15:31:27;6.50;99.90
27619;DHT22;15039;50.830;4.730;2022-12-07T15:33:52;6.50;99.90
27619;DHT22;15039;50.830;4.730;2022-12-07T15:36:24;6.50;99.90
27619;DHT22;15039;50.830;4.730;2022-12-07T15:38:50;6.50;99.90
27619;DHT22;15039;50.830;4.730;2022-12-07T15:41:16;6.50;99.90
27619;DHT22;15039;50.830;4.730;2022-12-07T15:43:43;6.40;99.90
27619;DHT22;15039;50.830;4.730;2022-12-07T15:46:35;6.50;99.90
27619;DHT22;15039;50.830;4.730;2022-12-07T15:49:02;6.30;99.90
27619;DHT22;15039;50.830;4.730;2022-12-07T15:51:27;6.20;99.90
27619;DHT22;15039;50.830;4.730;2022-12-07T15:53:53;6.20;99.90
27619;DHT22;15039;50.830;4.730;2022-12-07T15:56:19;6.30;99.90
27619;DHT22;15039;50.830;4.730;2022-12-07T15:58:44;6.30;99.90
27619;DHT22;15039;50.830;4.730;2022-12-07T16:01:12;6.30;99.90
27619;DHT22;15039;50.830;4.730;2022-12-07T16:03:38;6.30;99.90
27619;DHT22;15039;50.830;4.730;2022-12-07T16:06:03;6.30;99.90
27619;DHT22;15039;50.830;4.730;2022-12-07T16:08:29;6.40;99.90
27619;DHT22;15039;50.830;4.730;2022-12-07T16:10:55;6.40;99.90
27619;DHT22;15039;50.830;4.730;2022-12-07T16:13:21;6.40;99.90
27619;DHT22;15039;50.830;4.730;2022-12-07T16:15:46;6.40;99.90
27619;DHT22;15039;50.830;4.730;2022-12-07T16:18:12;6.50;99.90
27619;DHT22;15039;50.830;4.730;2022-12-07T16:20:38;6.50;99.90
27619;DHT22;15039;50.830;4.730;2022-12-07T16:23:04;6.50;99.90
27619;DHT22;15039;50.830;4.730;2022-12-07T16:25:29;6.50;99.90
27619;DHT22;15039;50.830;4.730;2022-12-07T16:27:55;6.50;99.90
27619;DHT22;15039;50.830;4.730;2022-12-07T16:30:21;6.60;99.90
27619;DHT22;15039;50.830;4.730;2022-12-07T16:32:46;6.60;99.90
27619;DHT22;15039;50.830;4.730;2022-12-07T16:35:12;6.60;99.90
27619;DHT22;15039;50.830;4.730;2022-12-07T16:37:40;6.60;99.90
27619;DHT22;15039;50.830;4.730;2022-12-07T16:40:07;6.50;99.90
27619;DHT22;15039;50.830;4.730;2022-12-07T16:42:34;6.50;99.90
27619;DHT22;15039;50.830;4.730;2022-12-07T16:45:00;6.50;99.90
27619;DHT22;15039;50.830;4.730;2022-12-07T16:47:25;6.40;99.90
27619;DHT22;15039;50.830;4.730;2022-12-07T16:49:51;6.50;99.90
27619;DHT22;15039;50.830;4.730;2022-12-07T16:52:18;6.50;99.90
27619;DHT22;15039;50.830;4.730;2022-12-07T16:54:44;6.60;99.90
27619;DHT22;15039;50.830;4.730;2022-12-07T16:57:10;6.70;99.90
27619;DHT22;15039;50.830;4.730;2022-12-07T16:59:35;6.60;99.90
27619;DHT22;15039;50.830;4.730;2022-12-07T17:02:01;6.50;99.90
27619;DHT22;15039;50.830;4.730;2022-12-07T17:04:27;6.50;99.90
27619;DHT22;15039;50.830;4.730;2022-12-07T17:06:53;6.40;99.90
27619;DHT22;15039;50.830;4.730;2022-12-07T17:09:19;6.40;99.90
27619;DHT22;15039;50.830;4.730;2022-12-07T17:11:45;6.50;99.90
27619;DHT22;15039;50.830;4.730;2022-12-07T17:14:11;6.40;99.90
27619;DHT22;15039;50.830;4.730;2022-12-07T17:16:55;6.50;99.90
27619;DHT22;15039;50.830;4.730;2022-12-07T17:19:20;6.40;99.90
27619;DHT22;15039;50.830;4.730;2022-12-07T17:21:46;6.40;99.90
27619;DHT22;15039;50.830;4.730;2022-12-07T17:24:14;6.50;99.90
27619;DHT22;15039;50.830;4.730;2022-12-07T17:26:42;6.50;99.90
27619;DHT22;15039;50.830;4.730;2022-12-07T17:29:08;6.50;99.90
27619;DHT22;15039;50.830;4.730;2022-12-07T17:31:36;6.50;99.90
27619;DHT22;15039;50.830;4.730;2022-12-07T17:34:02;6.50;99.90
27619;DHT22;15039;50.830;4.730;2022-12-07T17:36:30;6.50;99.90
27619;DHT22;15039;50.830;4.730;2022-12-07T17:38:57;6.50;99.90
27619;DHT22;15039;50.830;4.730;2022-12-07T17:41:25;6.60;99.90
27619;DHT22;15039;50.830;4.730;2022-12-07T17:44:12;6.50;99.90
27619;DHT22;15039;50.830;4.730;2022-12-07T17:46:38;6.50;99.90
27619;DHT22;15039;50.830;4.730;2022-12-07T17:49:04;6.50;99.90
27619;DHT22;15039;50.830;4.730;2022-12-07T17:51:31;6.40;99.90
27619;DHT22;15039;50.830;4.730;2022-12-07T17:54:15;6.30;99.90
27619;DHT22;15039;50.830;4.730;2022-12-07T17:56:41;6.10;99.90
27619;DHT22;15039;50.830;4.730;2022-12-07T17:59:07;6.10;99.90
27619;DHT22;15039;50.830;4.730;2022-12-07T18:01:33;6.00;99.90